createdAt,value
2023-02-01T00:00:01.066Z,1007.45
2023-02-01T00:01:01.002Z,1007.39
2023-02-01T00:02:01.000Z,1007.38
2023-02-01T00:03:00.986Z,1007.42
2023-02-01T00:04:01.019Z,1007.50
2023-02-01T00:05:00.973Z,1007.46
2023-02-01T00:06:00.985Z,1007.45
2023-02-01T00:07:00.934Z,1007.44
2023-02-01T00:08:00.923Z,1007.46
2023-02-01T00:09:00.920Z,1007.44
2023-02-01T00:10:00.952Z,1007.57
2023-02-01T00:11:00.914Z,1007.50
2023-02-01T00:12:00.898Z,1007.59
2023-02-01T00:13:00.874Z,1007.50
2023-02-01T00:14:00.864Z,1007.55
2023-02-01T00:15:00.870Z,1007.57
2023-02-01T00:16:01.001Z,1007.57
2023-02-01T00:17:00.838Z,1007.50
2023-02-01T00:18:00.826Z,1007.48
2023-02-01T00:19:00.813Z,1007.49
2023-02-01T00:20:00.815Z,1007.47
2023-02-01T00:21:00.811Z,1007.48
2023-02-01T00:22:00.786Z,1007.57
2023-02-01T00:23:00.767Z,1007.48
2023-02-01T00:24:00.770Z,1007.54
2023-02-01T00:25:00.797Z,1007.50
2023-02-01T00:26:00.748Z,1007.54
2023-02-01T00:27:00.748Z,1007.37
2023-02-01T00:28:00.712Z,1007.45
2023-02-01T00:29:00.717Z,1007.49
2023-02-01T00:30:00.708Z,1007.43
2023-02-01T00:31:00.832Z,1007.36
2023-02-01T00:32:00.735Z,1007.27
2023-02-01T00:33:00.682Z,1007.41
2023-02-01T00:34:00.653Z,1007.28
2023-02-01T00:35:00.661Z,1007.29
2023-02-01T00:36:00.653Z,1007.29
2023-02-01T00:37:00.627Z,1007.28
2023-02-01T00:38:00.623Z,1007.16
2023-02-01T00:39:00.602Z,1007.31
2023-02-01T00:40:00.587Z,1007.33
2023-02-01T00:41:00.600Z,1007.37
2023-02-01T00:42:00.562Z,1007.30
2023-02-01T00:43:00.563Z,1007.36
2023-02-01T00:44:00.547Z,1007.47
2023-02-01T00:45:00.539Z,1007.44
2023-02-01T00:46:00.537Z,1007.34
2023-02-01T00:47:00.557Z,1007.47
2023-02-01T00:48:00.553Z,1007.35
2023-02-01T00:49:00.500Z,1007.37
2023-02-01T00:50:00.493Z,1007.31
2023-02-01T00:51:00.469Z,1007.30
2023-02-01T00:52:00.465Z,1007.38
2023-02-01T00:53:00.465Z,1007.27
2023-02-01T00:54:00.457Z,1007.43
2023-02-01T00:55:00.433Z,1007.30
2023-02-01T00:56:00.429Z,1007.36
2023-02-01T00:57:00.410Z,1007.39
2023-02-01T00:58:00.403Z,1007.42
2023-02-01T00:59:00.419Z,1007.29
2023-02-01T01:00:00.379Z,1007.37
2023-02-01T01:01:00.409Z,1007.40
2023-02-01T01:02:00.377Z,1007.38
2023-02-01T01:03:00.351Z,1007.38
2023-02-01T01:04:00.379Z,1007.28
2023-02-01T01:05:00.330Z,1007.37
2023-02-01T01:06:00.316Z,1007.41
2023-02-01T01:07:00.321Z,1007.33
2023-02-01T01:08:00.300Z,1007.32
2023-02-01T01:09:00.314Z,1007.30
2023-02-01T01:10:00.279Z,1007.39
2023-02-01T01:11:00.265Z,1007.44
2023-02-01T01:12:00.255Z,1007.41
2023-02-01T01:13:00.241Z,1007.36
2023-02-01T01:14:00.273Z,1007.36
2023-02-01T01:15:00.240Z,1007.42
2023-02-01T01:16:00.243Z,1007.29
2023-02-01T01:17:00.204Z,1007.44
2023-02-01T01:18:00.190Z,1007.42
2023-02-01T01:19:00.244Z,1007.41
2023-02-01T01:20:00.269Z,1007.33
2023-02-01T01:21:00.166Z,1007.40
2023-02-01T01:22:00.164Z,1007.34
2023-02-01T01:23:00.167Z,1007.41
2023-02-01T01:24:00.142Z,1007.51
2023-02-01T01:25:00.142Z,1007.42
2023-02-01T01:26:00.128Z,1007.40
2023-02-01T01:27:00.128Z,1007.44
2023-02-01T01:28:00.124Z,1007.45
2023-02-01T01:29:00.237Z,1007.43
2023-02-01T01:30:00.112Z,1007.45
2023-02-01T01:31:00.178Z,1007.47
2023-02-01T01:32:00.066Z,1007.33
2023-02-01T01:33:00.065Z,1007.35
2023-02-01T01:34:00.042Z,1007.44
2023-02-01T01:35:00.021Z,1007.36
2023-02-01T01:36:00.087Z,1007.39
2023-02-01T01:37:00.011Z,1007.37
2023-02-01T01:37:59.986Z,1007.30
2023-02-01T01:39:00.007Z,1007.26
2023-02-01T01:39:59.984Z,1007.26
2023-02-01T01:40:59.957Z,1007.42
2023-02-01T01:41:59.959Z,1007.19
2023-02-01T01:42:59.946Z,1007.26
2023-02-01T01:43:59.919Z,1007.30
2023-02-01T01:44:59.915Z,1007.27
2023-02-01T01:45:59.919Z,1007.24
2023-02-01T01:46:59.925Z,1007.23
2023-02-01T01:47:59.885Z,1007.23
2023-02-01T01:48:59.880Z,1007.07
2023-02-01T01:49:59.860Z,1007.18
2023-02-01T01:50:59.852Z,1007.15
2023-02-01T01:51:59.867Z,1007.28
2023-02-01T01:52:59.832Z,1007.17
2023-02-01T01:53:59.824Z,1007.21
2023-02-01T01:54:59.823Z,1007.24
2023-02-01T01:55:59.808Z,1007.26
2023-02-01T01:56:59.795Z,1007.31
2023-02-01T01:57:59.793Z,1007.21
2023-02-01T01:58:59.767Z,1007.31
2023-02-01T01:59:59.755Z,1007.22
2023-02-01T02:00:59.783Z,1007.27
2023-02-01T02:01:59.798Z,1007.16
2023-02-01T02:02:59.719Z,1007.26
2023-02-01T02:03:59.756Z,1007.33
2023-02-01T02:04:59.699Z,1007.27
2023-02-01T02:05:59.697Z,1007.28
2023-02-01T02:06:59.682Z,1007.14
2023-02-01T02:07:59.751Z,1007.13
2023-02-01T02:08:59.671Z,1007.13
2023-02-01T02:10:01.394Z,1007.23
2023-02-01T02:10:59.683Z,1007.13
2023-02-01T02:11:59.625Z,1007.21
2023-02-01T02:12:59.625Z,1007.20
2023-02-01T02:13:59.624Z,1007.27
2023-02-01T02:14:59.646Z,1007.27
2023-02-01T02:15:59.686Z,1007.32
2023-02-01T02:16:59.578Z,1007.28
2023-02-01T02:17:59.563Z,1007.23
2023-02-01T02:18:59.551Z,1007.17
2023-02-01T02:19:59.554Z,1007.19
2023-02-01T02:20:59.561Z,1007.29
2023-02-01T02:21:59.532Z,1007.19
2023-02-01T02:22:59.525Z,1007.18
2023-02-01T02:23:59.517Z,1007.12
2023-02-01T02:24:59.506Z,1007.20
2023-02-01T02:25:59.497Z,1007.17
2023-02-01T02:26:59.480Z,1007.26
2023-02-01T02:27:59.481Z,1007.20
2023-02-01T02:28:59.447Z,1007.15
2023-02-01T02:29:59.443Z,1007.18
2023-02-01T02:30:59.462Z,1007.21
2023-02-01T02:31:59.430Z,1007.17
2023-02-01T02:32:59.431Z,1007.21
2023-02-01T02:33:59.404Z,1007.21
2023-02-01T02:34:59.393Z,1007.21
2023-02-01T02:35:59.381Z,1007.23
2023-02-01T02:36:59.370Z,1007.28
2023-02-01T02:37:59.351Z,1007.13
2023-02-01T02:38:59.358Z,1007.14
2023-02-01T02:39:59.360Z,1007.32
2023-02-01T02:40:59.331Z,1007.16
2023-02-01T02:41:59.334Z,1007.14
2023-02-01T02:42:59.301Z,1007.06
2023-02-01T02:43:59.316Z,1007.19
2023-02-01T02:44:59.276Z,1007.14
2023-02-01T02:45:59.334Z,1007.12
2023-02-01T02:46:59.266Z,1007.16
2023-02-01T02:47:59.261Z,1007.14
2023-02-01T02:48:59.250Z,1007.12
2023-02-01T02:49:59.227Z,1007.13
2023-02-01T02:50:59.215Z,1007.14
2023-02-01T02:51:59.211Z,1007.14
2023-02-01T02:52:59.204Z,1007.06
2023-02-01T02:53:59.193Z,1007.04
2023-02-01T02:54:59.206Z,1007.04
2023-02-01T02:55:59.199Z,1007.01
2023-02-01T02:56:59.155Z,1007.00
2023-02-01T02:57:59.141Z,1007.01
2023-02-01T02:58:59.133Z,1006.98
2023-02-01T02:59:59.154Z,1007.00
2023-02-01T03:00:59.155Z,1007.01
2023-02-01T03:01:59.090Z,1007.03
2023-02-01T03:02:59.130Z,1006.93
2023-02-01T03:03:59.084Z,1006.90
2023-02-01T03:04:59.114Z,1006.89
2023-02-01T03:05:59.066Z,1006.85
2023-02-01T03:06:59.047Z,1006.87
2023-02-01T03:07:59.043Z,1006.85
2023-02-01T03:08:59.017Z,1006.86
2023-02-01T03:09:59.022Z,1006.91
2023-02-01T03:10:59.012Z,1006.81
2023-02-01T03:11:59.024Z,1006.83
2023-02-01T03:12:58.988Z,1006.80
2023-02-01T03:13:58.975Z,1006.79
2023-02-01T03:14:58.954Z,1006.72
2023-02-01T03:15:58.943Z,1006.81
2023-02-01T03:16:58.955Z,1006.75
2023-02-01T03:17:58.928Z,1006.73
2023-02-01T03:18:58.939Z,1006.79
2023-02-01T03:19:58.909Z,1006.77
2023-02-01T03:20:58.917Z,1006.72
2023-02-01T03:21:59.843Z,1006.69
2023-02-01T03:22:58.881Z,1006.68
2023-02-01T03:23:58.887Z,1006.57
2023-02-01T03:24:58.856Z,1006.65
2023-02-01T03:25:58.837Z,1006.64
2023-02-01T03:26:58.830Z,1006.67
2023-02-01T03:27:58.853Z,1006.69
2023-02-01T03:28:58.825Z,1006.62
2023-02-01T03:29:58.811Z,1006.57
2023-02-01T03:30:58.866Z,1006.56
2023-02-01T03:31:58.836Z,1006.55
2023-02-01T03:33:06.309Z,1006.56
2023-02-01T03:33:58.757Z,1006.49
2023-02-01T03:34:58.749Z,1006.50
2023-02-01T03:35:58.739Z,1006.50
2023-02-01T03:36:58.721Z,1006.52
2023-02-01T03:37:58.711Z,1006.43
2023-02-01T03:38:58.732Z,1006.44
2023-02-01T03:39:58.690Z,1006.44
2023-02-01T03:40:58.684Z,1006.42
2023-02-01T03:41:58.697Z,1006.42
2023-02-01T03:42:58.671Z,1006.44
2023-02-01T03:43:58.704Z,1006.36
2023-02-01T03:44:58.633Z,1006.37
2023-02-01T03:45:58.654Z,1006.48
2023-02-01T03:46:58.624Z,1006.40
2023-02-01T03:47:58.616Z,1006.38
2023-02-01T03:48:58.593Z,1006.37
2023-02-01T03:49:58.616Z,1006.39
2023-02-01T03:50:58.572Z,1006.43
2023-02-01T03:51:58.708Z,1006.45
2023-02-01T03:52:58.552Z,1006.41
2023-02-01T03:53:58.587Z,1006.38
2023-02-01T03:54:58.541Z,1006.32
2023-02-01T03:55:58.535Z,1006.39
2023-02-01T03:56:58.516Z,1006.43
2023-02-01T03:57:58.497Z,1006.40
2023-02-01T03:58:58.495Z,1006.34
2023-02-01T03:59:58.505Z,1006.39
2023-02-01T04:00:58.617Z,1006.40
2023-02-01T04:01:58.463Z,1006.42
2023-02-01T04:02:58.450Z,1006.36
2023-02-01T04:03:58.439Z,1006.29
2023-02-01T04:04:58.431Z,1006.38
2023-02-01T04:05:58.452Z,1006.22
2023-02-01T04:06:58.415Z,1006.35
2023-02-01T04:07:58.408Z,1006.40
2023-02-01T04:08:58.394Z,1006.35
2023-02-01T04:09:58.377Z,1006.36
2023-02-01T04:10:58.360Z,1006.36
2023-02-01T04:11:58.371Z,1006.29
2023-02-01T04:12:58.350Z,1006.24
2023-02-01T04:13:58.330Z,1006.23
2023-02-01T04:14:58.330Z,1006.30
2023-02-01T04:15:58.329Z,1006.26
2023-02-01T04:16:58.301Z,1006.28
2023-02-01T04:17:58.303Z,1006.23
2023-02-01T04:18:58.277Z,1006.24
2023-02-01T04:19:58.275Z,1006.29
2023-02-01T04:20:58.277Z,1006.16
2023-02-01T04:21:58.240Z,1006.24
2023-02-01T04:22:58.228Z,1006.21
2023-02-01T04:23:58.237Z,1006.20
2023-02-01T04:24:58.217Z,1006.21
2023-02-01T04:25:58.212Z,1006.25
2023-02-01T04:26:58.209Z,1006.19
2023-02-01T04:27:58.202Z,1006.16
2023-02-01T04:28:58.193Z,1006.17
2023-02-01T04:29:58.565Z,1006.23
2023-02-01T04:30:58.315Z,1006.19
2023-02-01T04:31:58.155Z,1006.22
2023-02-01T04:32:58.139Z,1006.17
2023-02-01T04:33:58.119Z,1006.19
2023-02-01T04:34:58.120Z,1006.14
2023-02-01T04:35:58.092Z,1006.21
2023-02-01T04:36:58.089Z,1006.17
2023-02-01T04:37:58.092Z,1006.06
2023-02-01T04:38:58.070Z,1006.15
2023-02-01T04:39:58.052Z,1006.14
2023-02-01T04:40:58.037Z,1006.20
2023-02-01T04:41:58.046Z,1006.15
2023-02-01T04:42:58.031Z,1006.14
2023-02-01T04:43:58.023Z,1006.16
2023-02-01T04:44:58.007Z,1006.19
2023-02-01T04:45:58.060Z,1006.16
2023-02-01T04:46:57.978Z,1006.21
2023-02-01T04:47:57.985Z,1006.15
2023-02-01T04:48:57.962Z,1006.17
2023-02-01T04:49:57.940Z,1006.17
2023-02-01T04:50:57.941Z,1006.14
2023-02-01T04:51:57.921Z,1006.10
2023-02-01T04:52:57.923Z,1006.16
2023-02-01T04:53:57.902Z,1006.09
2023-02-01T04:54:59.275Z,1006.12
2023-02-01T04:55:57.880Z,1006.10
2023-02-01T04:56:57.877Z,1006.11
2023-02-01T04:57:57.858Z,1006.12
2023-02-01T04:58:57.854Z,1006.09
2023-02-01T04:59:57.831Z,1006.16
2023-02-01T05:00:57.843Z,1006.07
2023-02-01T05:01:57.820Z,1006.02
2023-02-01T05:02:57.805Z,1006.08
2023-02-01T05:03:57.832Z,1006.03
2023-02-01T05:04:57.867Z,1006.04
2023-02-01T05:05:57.774Z,1006.06
2023-02-01T05:06:57.765Z,1006.03
2023-02-01T05:07:57.761Z,1006.05
2023-02-01T05:08:57.731Z,1006.00
2023-02-01T05:09:57.740Z,1005.93
2023-02-01T05:11:05.252Z,1005.97
2023-02-01T05:11:57.699Z,1006.01
2023-02-01T05:12:57.687Z,1005.98
2023-02-01T05:13:57.673Z,1005.97
2023-02-01T05:14:57.668Z,1005.92
2023-02-01T05:15:57.806Z,1005.96
2023-02-01T05:16:57.651Z,1005.99
2023-02-01T05:17:57.644Z,1005.97
2023-02-01T05:18:57.628Z,1005.99
2023-02-01T05:19:57.641Z,1006.04
2023-02-01T05:20:57.624Z,1005.94
2023-02-01T05:21:57.607Z,1005.96
2023-02-01T05:22:57.622Z,1006.06
2023-02-01T05:23:57.585Z,1006.05
2023-02-01T05:24:57.567Z,1005.94
2023-02-01T05:25:57.558Z,1006.04
2023-02-01T05:26:57.553Z,1005.94
2023-02-01T05:27:57.528Z,1005.95
2023-02-01T05:28:57.516Z,1005.97
2023-02-01T05:29:57.518Z,1006.01
2023-02-01T05:30:57.566Z,1005.96
2023-02-01T05:32:00.967Z,1005.95
2023-02-01T05:32:58.472Z,1005.97
2023-02-01T05:33:57.471Z,1005.93
2023-02-01T05:34:57.456Z,1006.03
2023-02-01T05:35:57.466Z,1005.94
2023-02-01T05:36:57.435Z,1005.95
2023-02-01T05:37:57.444Z,1005.95
2023-02-01T05:38:57.423Z,1005.95
2023-02-01T05:39:57.414Z,1005.89
2023-02-01T05:40:57.403Z,1005.93
2023-02-01T05:41:57.390Z,1005.85
2023-02-01T05:42:57.396Z,1005.71
2023-02-01T05:43:57.360Z,1005.73
2023-02-01T05:44:57.359Z,1005.90
2023-02-01T05:45:57.432Z,1005.72
2023-02-01T05:46:57.346Z,1005.87
2023-02-01T05:47:57.316Z,1005.78
2023-02-01T05:48:57.317Z,1005.82
2023-02-01T05:49:57.285Z,1005.73
2023-02-01T05:50:57.302Z,1005.78
2023-02-01T05:51:59.381Z,1005.68
2023-02-01T05:52:57.269Z,1005.73
2023-02-01T05:53:57.255Z,1005.61
2023-02-01T05:54:57.242Z,1005.61
2023-02-01T05:55:57.226Z,1005.71
2023-02-01T05:56:57.242Z,1005.73
2023-02-01T05:57:57.209Z,1005.60
2023-02-01T05:58:57.208Z,1005.59
2023-02-01T05:59:57.819Z,1005.63
2023-02-01T06:00:57.176Z,1005.47
2023-02-01T06:01:57.162Z,1005.57
2023-02-01T06:02:57.251Z,1005.61
2023-02-01T06:03:57.221Z,1005.49
2023-02-01T06:04:57.127Z,1005.56
2023-02-01T06:05:57.124Z,1005.51
2023-02-01T06:06:57.121Z,1005.52
2023-02-01T06:07:57.114Z,1005.47
2023-02-01T06:08:57.092Z,1005.48
2023-02-01T06:09:57.079Z,1005.43
2023-02-01T06:10:57.070Z,1005.44
2023-02-01T06:11:57.061Z,1005.41
2023-02-01T06:12:57.036Z,1005.41
2023-02-01T06:13:57.062Z,1005.37
2023-02-01T06:14:57.029Z,1005.40
2023-02-01T06:15:57.054Z,1005.35
2023-02-01T06:16:57.004Z,1005.40
2023-02-01T06:17:56.989Z,1005.41
2023-02-01T06:18:56.989Z,1005.32
2023-02-01T06:19:56.971Z,1005.33
2023-02-01T06:20:56.960Z,1005.34
2023-02-01T06:21:56.956Z,1005.28
2023-02-01T06:22:56.939Z,1005.40
2023-02-01T06:23:56.956Z,1005.36
2023-02-01T06:24:56.925Z,1005.35
2023-02-01T06:25:56.926Z,1005.36
2023-02-01T06:26:56.891Z,1005.38
2023-02-01T06:27:56.875Z,1005.31
2023-02-01T06:28:56.872Z,1005.38
2023-02-01T06:29:56.860Z,1005.33
2023-02-01T06:30:56.965Z,1005.22
2023-02-01T06:31:57.009Z,1005.28
2023-02-01T06:32:56.829Z,1005.26
2023-02-01T06:33:56.824Z,1005.33
2023-02-01T06:34:56.804Z,1005.30
2023-02-01T06:35:56.790Z,1005.24
2023-02-01T06:36:56.778Z,1005.29
2023-02-01T06:37:56.783Z,1005.18
2023-02-01T06:38:56.768Z,1005.12
2023-02-01T06:39:56.773Z,1005.14
2023-02-01T06:40:56.747Z,1005.08
2023-02-01T06:41:56.739Z,1005.10
2023-02-01T06:42:56.724Z,1005.12
2023-02-01T06:43:56.717Z,1005.08
2023-02-01T06:44:56.711Z,1005.05
2023-02-01T06:45:56.683Z,1005.10
2023-02-01T06:46:56.707Z,1005.08
2023-02-01T06:47:56.684Z,1005.13
2023-02-01T06:49:04.179Z,1005.06
2023-02-01T06:49:56.631Z,1004.99
2023-02-01T06:50:56.643Z,1005.13
2023-02-01T06:51:56.623Z,1005.06
2023-02-01T06:52:56.618Z,1005.11
2023-02-01T06:53:56.612Z,1005.06
2023-02-01T06:54:56.599Z,1005.13
2023-02-01T06:55:56.589Z,1005.10
2023-02-01T06:56:56.562Z,1005.06
2023-02-01T06:57:56.561Z,1005.10
2023-02-01T06:58:56.575Z,1005.14
2023-02-01T06:59:56.551Z,1005.08
2023-02-01T07:00:56.624Z,1005.10
2023-02-01T07:01:56.549Z,1005.07
2023-02-01T07:02:56.506Z,1005.07
2023-02-01T07:03:56.513Z,1005.07
2023-02-01T07:04:56.471Z,1005.04
2023-02-01T07:05:56.469Z,1005.07
2023-02-01T07:06:56.471Z,1005.08
2023-02-01T07:07:56.442Z,1005.08
2023-02-01T07:08:56.454Z,1005.01
2023-02-01T07:09:56.441Z,1004.97
2023-02-01T07:10:56.410Z,1004.95
2023-02-01T07:11:56.423Z,1004.95
2023-02-01T07:12:56.408Z,1004.96
2023-02-01T07:13:56.381Z,1004.86
2023-02-01T07:14:56.372Z,1005.00
2023-02-01T07:15:56.401Z,1004.82
2023-02-01T07:16:56.343Z,1004.87
2023-02-01T07:17:56.359Z,1004.85
2023-02-01T07:18:56.320Z,1004.77
2023-02-01T07:19:56.321Z,1004.82
2023-02-01T07:20:56.311Z,1004.79
2023-02-01T07:21:56.304Z,1004.72
2023-02-01T07:22:56.289Z,1004.77
2023-02-01T07:23:56.284Z,1004.81
2023-02-01T07:24:56.269Z,1004.70
2023-02-01T07:25:56.275Z,1004.72
2023-02-01T07:26:56.278Z,1004.73
2023-02-01T07:27:56.300Z,1004.77
2023-02-01T07:28:56.229Z,1004.70
2023-02-01T07:29:56.215Z,1004.75
2023-02-01T07:30:56.280Z,1004.77
2023-02-01T07:31:56.204Z,1004.74
2023-02-01T07:32:56.194Z,1004.70
2023-02-01T07:33:56.200Z,1004.75
2023-02-01T07:34:56.152Z,1004.72
2023-02-01T07:35:56.142Z,1004.71
2023-02-01T07:36:56.126Z,1004.75
2023-02-01T07:37:56.131Z,1004.70
2023-02-01T07:38:56.868Z,1004.74
2023-02-01T07:39:56.101Z,1004.68
2023-02-01T07:40:56.104Z,1004.73
2023-02-01T07:41:56.080Z,1004.63
2023-02-01T07:42:56.061Z,1004.64
2023-02-01T07:43:56.076Z,1004.57
2023-02-01T07:44:56.057Z,1004.54
2023-02-01T07:45:56.068Z,1004.65
2023-02-01T07:46:56.037Z,1004.57
2023-02-01T07:47:56.028Z,1004.54
2023-02-01T07:48:55.997Z,1004.50
2023-02-01T07:49:56.003Z,1004.55
2023-02-01T07:50:55.989Z,1004.56
2023-02-01T07:51:55.982Z,1004.44
2023-02-01T07:52:55.963Z,1004.38
2023-02-01T07:53:56.477Z,1004.55
2023-02-01T07:54:55.944Z,1004.52
2023-02-01T07:55:55.929Z,1004.53
2023-02-01T07:56:55.927Z,1004.52
2023-02-01T07:57:55.914Z,1004.46
2023-02-01T07:58:55.896Z,1004.42
2023-02-01T07:59:55.920Z,1004.45
2023-02-01T08:00:55.928Z,1004.47
2023-02-01T08:01:55.933Z,1004.31
2023-02-01T08:02:55.861Z,1004.47
2023-02-01T08:03:55.838Z,1004.38
2023-02-01T08:04:55.835Z,1004.36
2023-02-01T08:05:55.824Z,1004.44
2023-02-01T08:06:55.816Z,1004.37
2023-02-01T08:07:55.821Z,1004.36
2023-02-01T08:08:55.801Z,1004.31
2023-02-01T08:09:55.781Z,1004.45
2023-02-01T08:10:55.778Z,1004.41
2023-02-01T08:11:55.755Z,1004.45
2023-02-01T08:12:55.760Z,1004.48
2023-02-01T08:13:55.759Z,1004.60
2023-02-01T08:14:55.721Z,1004.52
2023-02-01T08:15:55.789Z,1004.53
2023-02-01T08:16:55.708Z,1004.47
2023-02-01T08:17:55.708Z,1004.53
2023-02-01T08:18:55.698Z,1004.47
2023-02-01T08:19:55.669Z,1004.45
2023-02-01T08:20:55.666Z,1004.46
2023-02-01T08:21:55.653Z,1004.53
2023-02-01T08:22:55.643Z,1004.32
2023-02-01T08:23:55.648Z,1004.53
2023-02-01T08:24:55.643Z,1004.58
2023-02-01T08:25:55.602Z,1004.46
2023-02-01T08:26:55.663Z,1004.66
2023-02-01T08:27:55.585Z,1004.59
2023-02-01T08:28:55.585Z,1004.66
2023-02-01T08:29:55.566Z,1004.66
2023-02-01T08:30:55.610Z,1004.71
2023-02-01T08:31:55.682Z,1004.61
2023-02-01T08:32:55.538Z,1004.74
2023-02-01T08:33:55.565Z,1004.62
2023-02-01T08:34:55.517Z,1004.77
2023-02-01T08:35:55.498Z,1004.92
2023-02-01T08:36:55.491Z,1004.72
2023-02-01T08:37:55.481Z,1004.88
2023-02-01T08:38:55.481Z,1004.81
2023-02-01T08:39:55.479Z,1004.88
2023-02-01T08:40:55.457Z,1004.95
2023-02-01T08:41:55.444Z,1004.91
2023-02-01T08:42:55.428Z,1005.00
2023-02-01T08:43:55.482Z,1004.92
2023-02-01T08:44:55.431Z,1004.97
2023-02-01T08:45:56.925Z,1004.92
2023-02-01T08:46:55.388Z,1005.11
2023-02-01T08:47:55.384Z,1005.06
2023-02-01T08:48:55.370Z,1005.04
2023-02-01T08:49:55.348Z,1004.98
2023-02-01T08:50:55.345Z,1005.11
2023-02-01T08:51:58.463Z,1005.09
2023-02-01T08:52:56.332Z,1005.01
2023-02-01T08:53:55.317Z,1005.08
2023-02-01T08:54:55.330Z,1005.12
2023-02-01T08:55:55.285Z,1005.08
2023-02-01T08:56:55.355Z,1005.14
2023-02-01T08:57:55.291Z,1005.12
2023-02-01T08:58:55.255Z,1005.18
2023-02-01T08:59:55.266Z,1005.20
2023-02-01T09:00:55.259Z,1005.14
2023-02-01T09:01:55.227Z,1005.21
2023-02-01T09:02:55.216Z,1005.20
2023-02-01T09:03:55.343Z,1005.22
2023-02-01T09:04:55.201Z,1005.32
2023-02-01T09:05:55.207Z,1005.25
2023-02-01T09:06:55.172Z,1005.24
2023-02-01T09:07:55.162Z,1005.18
2023-02-01T09:08:55.152Z,1005.28
2023-02-01T09:09:55.137Z,1005.25
2023-02-01T09:10:55.129Z,1005.20
2023-02-01T09:11:55.126Z,1005.31
2023-02-01T09:12:55.113Z,1005.28
2023-02-01T09:13:55.123Z,1005.25
2023-02-01T09:14:55.100Z,1005.28
2023-02-01T09:15:55.181Z,1005.25
2023-02-01T09:16:55.068Z,1005.30
2023-02-01T09:17:55.056Z,1005.37
2023-02-01T09:19:14.812Z,1005.38
2023-02-01T09:19:56.067Z,1005.32
2023-02-01T09:20:55.037Z,1005.33
2023-02-01T09:21:55.029Z,1005.46
2023-02-01T09:22:55.028Z,1005.27
2023-02-01T09:23:55.005Z,1005.35
2023-02-01T09:24:55.461Z,1005.38
2023-02-01T09:25:54.987Z,1005.42
2023-02-01T09:26:54.990Z,1005.50
2023-02-01T09:27:54.949Z,1005.40
2023-02-01T09:28:54.946Z,1005.42
2023-02-01T09:29:54.934Z,1005.43
2023-02-01T09:30:55.054Z,1005.39
2023-02-01T09:32:03.360Z,1005.49
2023-02-01T09:32:55.914Z,1005.48
2023-02-01T09:33:54.892Z,1005.43
2023-02-01T09:34:54.910Z,1005.46
2023-02-01T09:35:54.912Z,1005.52
2023-02-01T09:36:54.864Z,1005.52
2023-02-01T09:37:54.838Z,1005.56
2023-02-01T09:38:54.896Z,1005.49
2023-02-01T09:39:54.832Z,1005.62
2023-02-01T09:40:54.829Z,1005.58
2023-02-01T09:41:54.801Z,1005.51
2023-02-01T09:42:54.825Z,1005.50
2023-02-01T09:43:54.810Z,1005.61
2023-02-01T09:44:54.768Z,1005.51
2023-02-01T09:45:54.823Z,1005.62
2023-02-01T09:46:54.757Z,1005.57
2023-02-01T09:47:54.739Z,1005.61
2023-02-01T09:48:54.746Z,1005.65
2023-02-01T09:49:54.724Z,1005.72
2023-02-01T09:50:54.718Z,1005.70
2023-02-01T09:51:54.720Z,1005.83
2023-02-01T09:52:54.679Z,1005.76
2023-02-01T09:53:54.665Z,1005.83
2023-02-01T09:54:54.659Z,1005.79
2023-02-01T09:55:54.659Z,1005.81
2023-02-01T09:56:54.643Z,1005.85
2023-02-01T09:57:54.620Z,1005.86
2023-02-01T09:58:54.613Z,1005.90
2023-02-01T09:59:54.620Z,1005.88
2023-02-01T10:00:54.616Z,1005.78
2023-02-01T10:01:54.597Z,1005.83
2023-02-01T10:02:54.573Z,1005.87
2023-02-01T10:03:54.625Z,1005.77
2023-02-01T10:04:54.555Z,1005.86
2023-02-01T10:05:54.542Z,1005.84
2023-02-01T10:06:54.545Z,1005.88
2023-02-01T10:07:54.533Z,1005.88
2023-02-01T10:08:54.514Z,1005.82
2023-02-01T10:09:54.502Z,1005.74
2023-02-01T10:10:54.487Z,1005.82
2023-02-01T10:11:54.472Z,1005.90
2023-02-01T10:12:54.498Z,1005.89
2023-02-01T10:13:54.445Z,1005.89
2023-02-01T10:14:54.433Z,1005.90
2023-02-01T10:15:54.525Z,1005.92
2023-02-01T10:16:54.466Z,1005.83
2023-02-01T10:17:54.418Z,1005.83
2023-02-01T10:18:54.405Z,1005.93
2023-02-01T10:19:54.407Z,1005.82
2023-02-01T10:20:54.381Z,1005.95
2023-02-01T10:21:54.367Z,1005.87
2023-02-01T10:23:16.360Z,1005.88
2023-02-01T10:23:57.426Z,1005.86
2023-02-01T10:24:54.328Z,1005.87
2023-02-01T10:25:54.331Z,1005.80
2023-02-01T10:26:54.431Z,1005.81
2023-02-01T10:27:54.309Z,1005.86
2023-02-01T10:28:54.324Z,1005.86
2023-02-01T10:29:54.339Z,1005.90
2023-02-01T10:30:54.376Z,1005.84
2023-02-01T10:31:54.511Z,1005.87
2023-02-01T10:32:54.245Z,1005.80
2023-02-01T10:33:54.250Z,1005.77
2023-02-01T10:34:54.247Z,1005.75
2023-02-01T10:35:54.228Z,1005.68
2023-02-01T10:36:54.214Z,1005.72
2023-02-01T10:37:54.190Z,1005.63
2023-02-01T10:38:54.181Z,1005.65
2023-02-01T10:39:54.223Z,1005.50
2023-02-01T10:40:54.206Z,1005.69
2023-02-01T10:41:54.152Z,1005.65
2023-02-01T10:42:54.144Z,1005.63
2023-02-01T10:43:54.137Z,1005.63
2023-02-01T10:44:54.132Z,1005.61
2023-02-01T10:45:54.118Z,1005.64
2023-02-01T10:46:54.111Z,1005.63
2023-02-01T10:47:54.090Z,1005.63
2023-02-01T10:48:54.090Z,1005.59
2023-02-01T10:49:54.070Z,1005.62
2023-02-01T10:50:54.064Z,1005.56
2023-02-01T10:51:54.064Z,1005.53
2023-02-01T10:52:54.065Z,1005.55
2023-02-01T10:53:54.059Z,1005.57
2023-02-01T10:54:54.021Z,1005.59
2023-02-01T10:55:54.037Z,1005.54
2023-02-01T10:56:54.012Z,1005.50
2023-02-01T10:57:54.010Z,1005.47
2023-02-01T10:58:53.997Z,1005.57
2023-02-01T10:59:53.971Z,1005.62
2023-02-01T11:00:53.945Z,1005.55
2023-02-01T11:01:59.782Z,1005.68
2023-02-01T11:02:54.990Z,1005.53
2023-02-01T11:03:53.940Z,1005.65
2023-02-01T11:04:53.921Z,1005.50
2023-02-01T11:05:53.932Z,1005.63
2023-02-01T11:06:53.897Z,1005.63
2023-02-01T11:07:53.886Z,1005.53
2023-02-01T11:08:53.885Z,1005.63
2023-02-01T11:09:53.877Z,1005.60
2023-02-01T11:10:53.845Z,1005.55
2023-02-01T11:11:53.853Z,1005.57
2023-02-01T11:12:53.836Z,1005.48
2023-02-01T11:13:53.828Z,1005.57
2023-02-01T11:14:53.813Z,1005.62
2023-02-01T11:15:55.490Z,1005.56
2023-02-01T11:16:53.785Z,1005.50
2023-02-01T11:17:53.790Z,1005.53
2023-02-01T11:18:53.753Z,1005.59
2023-02-01T11:19:53.776Z,1005.52
2023-02-01T11:20:53.746Z,1005.42
2023-02-01T11:21:53.741Z,1005.52
2023-02-01T11:22:53.761Z,1005.46
2023-02-01T11:23:53.703Z,1005.38
2023-02-01T11:24:53.725Z,1005.39
2023-02-01T11:25:53.687Z,1005.37
2023-02-01T11:26:53.740Z,1005.37
2023-02-01T11:27:55.658Z,1005.24
2023-02-01T11:28:53.653Z,1005.45
2023-02-01T11:29:53.651Z,1005.40
2023-02-01T11:30:53.660Z,1005.46
2023-02-01T11:31:53.642Z,1005.32
2023-02-01T11:32:53.617Z,1005.36
2023-02-01T11:33:53.604Z,1005.32
2023-02-01T11:34:53.592Z,1005.33
2023-02-01T11:35:53.597Z,1005.35
2023-02-01T11:36:53.555Z,1005.29
2023-02-01T11:37:53.546Z,1005.25
2023-02-01T11:38:53.545Z,1005.22
2023-02-01T11:39:53.527Z,1005.30
2023-02-01T11:40:53.534Z,1005.34
2023-02-01T11:41:53.552Z,1005.26
2023-02-01T11:42:53.504Z,1005.22
2023-02-01T11:43:53.510Z,1004.98
2023-02-01T11:44:53.478Z,1005.16
2023-02-01T11:45:53.488Z,1005.19
2023-02-01T11:46:53.552Z,1005.19
2023-02-01T11:47:53.469Z,1005.21
2023-02-01T11:48:53.439Z,1005.12
2023-02-01T11:49:53.452Z,1005.11
2023-02-01T11:50:53.414Z,1005.14
2023-02-01T11:51:53.426Z,1005.12
2023-02-01T11:52:53.431Z,1005.16
2023-02-01T11:53:53.382Z,1005.01
2023-02-01T11:54:53.375Z,1005.06
2023-02-01T11:55:53.375Z,1005.08
2023-02-01T11:56:53.351Z,1004.91
2023-02-01T11:57:53.362Z,1005.10
2023-02-01T11:58:53.328Z,1004.97
2023-02-01T11:59:56.847Z,1004.92
2023-02-01T12:00:53.311Z,1004.95
2023-02-01T12:01:53.319Z,1004.89
2023-02-01T12:02:53.338Z,1004.91
2023-02-01T12:03:53.311Z,1005.06
2023-02-01T12:04:53.265Z,1004.89